Etusivu
METAR-TAF:

METAR-TAF

Lentoasemat :

Fritzlar, Saksa

Leveyspiiri: 51-07N, Pituuspiiri: 009-17E, korkeus merenpinnasta: 172 m

Tämänhetkinen sää

Tämä raportti tehtiin 1 tunti ja 6 minuuttia sitten, kello 04.20 UTC
Tuuli 2 kn lännestä/luoteesta
Lämpötila -3°C
Kosteus 86%
Ilmanpaine 1038 hPa
Näkyvyys 10 km tai enemmän
Muutamia pilviä 35000 ft:n korkeudessa

METAR: ETHF 240420Z 29002KT 9999 FEW350 M03/M05 Q1038 BLU+

Aika: 06:26 (05:26 UTC)


TAF: puuttuu

Säähavainnot ja -ennusteet yli 4000 lentoasemalta (METAR- ja TAF-raportit).

Käytössä olevat sääasemat on merkitty karttaan keltaisilla ja punaisilla pisteillä.

Aseta hiiri pisteen päälle nähdäksesi sääaseman nimen.

Klikkaa sitten nähdäksesi säähavainnot ja -ennusteet.

Kartan vaihtaminen: klikkaa mustalla rastilla varustettuja vihreitä pisteitä, niin voit zoomata sisään; viivalla varustettua vihreää pistettä, niin voit zoomata ulos tai vihreitä nuolia, niin pääset viereisille kartoille.


METAR-TAF: